createdAt,value
2023-08-23T04:02:34.248Z,17.83
2023-08-23T04:05:03.462Z,17.82
2023-08-23T04:07:30.054Z,17.90
2023-08-23T04:09:56.663Z,17.89
2023-08-23T04:12:23.844Z,17.90
2023-08-23T04:14:51.335Z,17.94
2023-08-23T04:17:17.959Z,17.96
2023-08-23T04:19:44.609Z,18.00
2023-08-23T04:22:11.205Z,17.92
2023-08-23T04:24:37.790Z,17.92
2023-08-23T04:27:05.313Z,17.96
2023-08-23T04:29:32.683Z,17.96
2023-08-23T04:31:59.563Z,17.94
2023-08-23T04:34:26.433Z,17.96
2023-08-23T04:36:53.724Z,17.94
2023-08-23T04:39:20.310Z,17.92
2023-08-23T04:41:46.891Z,17.87
2023-08-23T04:44:13.796Z,17.86
2023-08-23T04:46:40.412Z,17.86
2023-08-23T04:49:06.972Z,17.85
2023-08-23T04:51:33.521Z,17.82
2023-08-23T04:54:00.236Z,17.82
2023-08-23T04:56:27.032Z,17.79
2023-08-23T04:58:54.359Z,17.71
2023-08-23T05:01:21.045Z,17.68
2023-08-23T05:03:48.030Z,17.72
2023-08-23T05:06:14.586Z,17.72
2023-08-23T05:08:41.323Z,17.76
2023-08-23T05:11:08.498Z,17.71
2023-08-23T05:13:35.813Z,17.73
2023-08-23T05:16:02.485Z,17.69
2023-08-23T05:18:29.546Z,17.62
2023-08-23T05:20:58.704Z,17.56
2023-08-23T05:23:25.551Z,17.58
2023-08-23T05:25:53.784Z,17.58
2023-08-23T05:28:21.147Z,17.58
2023-08-23T05:30:48.886Z,17.59
2023-08-23T05:33:15.850Z,17.62
2023-08-23T05:35:44.061Z,17.65
2023-08-23T05:38:11.464Z,17.62
2023-08-23T05:40:39.052Z,17.64
2023-08-23T05:43:07.350Z,17.65
2023-08-23T05:45:34.466Z,17.72
2023-08-23T05:48:01.615Z,17.79
2023-08-23T05:50:29.018Z,17.89
2023-08-23T05:52:56.103Z,17.94
2023-08-23T05:55:23.198Z,17.93
2023-08-23T05:57:50.237Z,17.87
2023-08-23T06:00:17.467Z,17.79
2023-08-23T06:02:45.568Z,17.87
2023-08-23T06:05:13.019Z,17.87
2023-08-23T06:07:40.029Z,17.93
2023-08-23T06:10:07.544Z,18.00
2023-08-23T06:12:34.911Z,18.06
2023-08-23T06:15:01.842Z,18.10
2023-08-23T06:17:32.519Z,18.26
2023-08-23T06:19:59.178Z,18.43
2023-08-23T06:22:26.622Z,18.57
2023-08-23T06:24:53.985Z,18.75
2023-08-23T06:27:20.627Z,18.95
2023-08-23T06:29:47.281Z,19.20
2023-08-23T06:32:13.928Z,19.37
2023-08-23T06:34:41.010Z,19.53
2023-08-23T06:37:09.326Z,19.73
2023-08-23T06:39:36.014Z,19.91
2023-08-23T06:42:02.846Z,20.05
2023-08-23T06:44:31.184Z,20.26
2023-08-23T06:46:57.924Z,20.50
2023-08-23T06:49:24.538Z,20.66
2023-08-23T06:51:51.131Z,20.98
2023-08-23T06:54:17.733Z,21.21
2023-08-23T06:56:44.348Z,21.55
2023-08-23T06:59:11.075Z,21.94
2023-08-23T07:01:37.670Z,22.13
2023-08-23T07:04:04.544Z,22.24
2023-08-23T07:06:33.313Z,22.40
2023-08-23T07:09:00.201Z,22.44
2023-08-23T07:11:26.947Z,22.20
2023-08-23T07:13:53.540Z,22.21
2023-08-23T07:16:20.320Z,22.58
2023-08-23T07:18:46.939Z,22.91
2023-08-23T07:21:13.656Z,23.34
2023-08-23T07:23:41.928Z,23.42
2023-08-23T07:26:10.582Z,23.39
2023-08-23T07:28:38.282Z,23.58
2023-08-23T07:31:05.034Z,23.95
2023-08-23T07:33:31.766Z,23.79
2023-08-23T07:36:00.153Z,24.02
2023-08-23T07:38:27.827Z,24.11
2023-08-23T07:40:58.657Z,24.52
2023-08-23T07:43:25.881Z,24.57
2023-08-23T07:45:54.943Z,24.73
2023-08-23T07:48:23.728Z,25.08
2023-08-23T07:50:54.494Z,25.59
2023-08-23T07:53:21.058Z,25.90
2023-08-23T07:55:47.760Z,26.24
2023-08-23T07:58:15.289Z,25.97
2023-08-23T08:00:42.218Z,25.89
2023-08-23T08:03:10.478Z,26.44
2023-08-23T08:05:37.819Z,26.68
2023-08-23T08:08:08.534Z,27.13
2023-08-23T08:10:36.559Z,27.41
2023-08-23T08:13:03.958Z,27.37
2023-08-23T08:15:32.245Z,27.78
2023-08-23T08:17:58.881Z,28.04
2023-08-23T08:20:26.317Z,28.37
2023-08-23T08:22:53.647Z,28.43
2023-08-23T08:25:20.981Z,27.77
2023-08-23T08:27:48.353Z,27.98
2023-08-23T08:30:15.619Z,27.58
2023-08-23T08:32:42.477Z,28.15
2023-08-23T08:35:10.339Z,28.49
2023-08-23T08:37:38.055Z,29.05
2023-08-23T08:40:05.255Z,29.53
2023-08-23T08:42:32.834Z,29.91
2023-08-23T08:45:02.478Z,30.27
2023-08-23T08:47:29.715Z,29.59
2023-08-23T08:49:56.797Z,29.53
2023-08-23T08:52:26.472Z,29.89
2023-08-23T08:54:54.750Z,29.41
2023-08-23T08:57:24.144Z,29.90
2023-08-23T08:59:51.646Z,30.14
2023-08-23T09:02:20.013Z,30.83
2023-08-23T09:04:47.755Z,31.13
2023-08-23T09:07:15.250Z,31.33
2023-08-23T09:09:43.630Z,31.71
2023-08-23T09:12:11.236Z,31.91
2023-08-23T09:14:40.772Z,32.08
2023-08-23T09:17:09.213Z,31.85
2023-08-23T09:19:37.395Z,31.74
2023-08-23T09:22:06.044Z,31.67
2023-08-23T09:24:33.215Z,31.88
2023-08-23T09:27:00.019Z,31.40
2023-08-23T09:29:26.910Z,32.13
2023-08-23T09:31:53.545Z,32.79
2023-08-23T09:34:20.233Z,33.01
2023-08-23T09:36:48.219Z,33.21
2023-08-23T09:39:14.926Z,33.41
2023-08-23T09:41:59.244Z,33.28
2023-08-23T09:44:30.426Z,32.90
2023-08-23T09:47:01.314Z,33.29
2023-08-23T09:49:33.355Z,33.52
2023-08-23T09:52:02.525Z,33.12
2023-08-23T09:55:12.900Z,33.86
2023-08-23T09:57:43.280Z,33.42
2023-08-23T10:00:10.930Z,33.08
2023-08-23T10:02:38.517Z,33.18
2023-08-23T10:05:08.277Z,33.62
2023-08-23T10:07:37.024Z,33.89
2023-08-23T10:10:07.264Z,34.20
2023-08-23T10:12:38.077Z,34.39
2023-08-23T10:15:06.100Z,33.86
2023-08-23T10:17:34.199Z,34.57
2023-08-23T10:20:08.637Z,34.17
2023-08-23T10:22:36.523Z,34.03
2023-08-23T10:25:14.113Z,34.65
2023-08-23T10:27:40.697Z,34.31
2023-08-23T10:30:20.062Z,34.99
2023-08-23T10:32:47.986Z,34.74
2023-08-23T10:35:32.729Z,34.47
2023-08-23T10:37:59.612Z,34.51
2023-08-23T10:40:30.241Z,33.62
2023-08-23T10:42:57.410Z,34.57
2023-08-23T10:45:25.513Z,34.50
2023-08-23T10:47:53.066Z,34.39
2023-08-23T10:50:22.475Z,35.25
2023-08-23T10:52:52.209Z,35.56
2023-08-23T10:55:19.088Z,35.06
2023-08-23T10:57:46.420Z,34.98
2023-08-23T11:00:14.239Z,34.47
2023-08-23T11:02:41.022Z,35.16
2023-08-23T11:05:08.151Z,34.79
2023-08-23T11:07:36.217Z,35.30
2023-08-23T11:10:03.012Z,34.19
2023-08-23T11:12:29.919Z,34.28
2023-08-23T11:14:58.200Z,34.91
2023-08-23T11:17:24.869Z,34.67
2023-08-23T11:19:51.677Z,35.02
2023-08-23T11:22:18.820Z,35.77
2023-08-23T11:24:47.699Z,36.21
2023-08-23T11:27:14.785Z,36.06
2023-08-23T11:29:44.948Z,36.34
2023-08-23T11:32:14.555Z,36.04
2023-08-23T11:34:41.133Z,36.22
2023-08-23T11:37:09.002Z,35.43
2023-08-23T11:39:35.790Z,36.05
2023-08-23T11:42:02.475Z,36.27
2023-08-23T11:44:29.414Z,35.98
2023-08-23T11:46:58.329Z,36.35
2023-08-23T11:49:25.592Z,36.46
2023-08-23T11:51:53.288Z,37.04
2023-08-23T11:54:21.237Z,36.70
2023-08-23T11:56:47.847Z,35.47
2023-08-23T11:59:14.993Z,35.76
2023-08-23T12:01:45.611Z,36.42
2023-08-23T12:04:13.259Z,36.39
2023-08-23T12:06:43.819Z,35.08
2023-08-23T12:09:12.090Z,35.20
2023-08-23T12:11:39.846Z,35.15
2023-08-23T12:14:08.035Z,34.52
2023-08-23T12:16:35.869Z,34.95
2023-08-23T12:19:07.177Z,35.58
2023-08-23T12:21:41.287Z,35.72
2023-08-23T12:24:08.318Z,35.45
2023-08-23T12:26:35.176Z,34.34
2023-08-23T12:29:02.414Z,34.55
2023-08-23T12:31:29.266Z,35.30
2023-08-23T12:33:56.177Z,36.08
2023-08-23T12:36:23.413Z,35.80
2023-08-23T12:38:50.497Z,35.54
2023-08-23T12:41:17.341Z,34.19
2023-08-23T12:43:44.486Z,34.41
2023-08-23T12:46:11.496Z,35.20
2023-08-23T12:48:39.650Z,35.64
2023-08-23T12:51:06.583Z,35.25
2023-08-23T12:53:33.270Z,36.00
2023-08-23T12:55:59.950Z,36.61
2023-08-23T12:58:26.597Z,34.79
2023-08-23T13:00:53.512Z,35.02
2023-08-23T13:03:23.147Z,35.32
2023-08-23T13:05:49.882Z,35.87
2023-08-23T13:08:16.493Z,36.01
2023-08-23T13:10:43.314Z,35.84
2023-08-23T13:13:09.955Z,35.39
2023-08-23T13:15:36.957Z,36.02
2023-08-23T13:18:04.685Z,36.45
2023-08-23T13:20:31.348Z,35.87
2023-08-23T13:22:58.633Z,34.09
2023-08-23T13:25:25.755Z,33.51
2023-08-23T13:27:52.682Z,34.23
2023-08-23T13:30:19.454Z,33.90
2023-08-23T13:32:46.076Z,33.55
2023-08-23T13:35:13.845Z,33.55
2023-08-23T13:37:40.554Z,33.85
2023-08-23T13:40:10.001Z,33.94
2023-08-23T13:42:40.188Z,34.21
2023-08-23T13:45:09.357Z,34.68
2023-08-23T13:47:37.254Z,33.97
2023-08-23T13:50:05.966Z,33.75
2023-08-23T13:52:32.875Z,34.36
2023-08-23T13:55:00.207Z,33.39
2023-08-23T13:57:27.555Z,33.92
2023-08-23T13:59:54.100Z,33.83
2023-08-23T14:02:21.156Z,34.43
2023-08-23T14:04:47.786Z,34.40
2023-08-23T14:07:16.364Z,34.33
2023-08-23T14:09:43.257Z,33.94
2023-08-23T14:12:10.280Z,33.70
2023-08-23T14:14:37.442Z,33.63
2023-08-23T14:17:04.593Z,33.66
2023-08-23T14:19:32.907Z,33.75
2023-08-23T14:22:00.118Z,33.94
2023-08-23T14:24:28.293Z,34.21
2023-08-23T14:26:55.628Z,34.20
2023-08-23T14:29:22.944Z,34.37
2023-08-23T14:31:49.939Z,34.48
2023-08-23T14:34:16.991Z,34.45
2023-08-23T14:36:44.858Z,34.48
2023-08-23T14:39:14.339Z,34.10
2023-08-23T14:41:41.212Z,34.19
2023-08-23T14:44:07.925Z,33.96
2023-08-23T14:46:34.643Z,33.45
2023-08-23T14:49:01.294Z,33.14
2023-08-23T14:51:27.871Z,33.55
2023-08-23T14:53:55.288Z,33.10
2023-08-23T14:56:21.866Z,33.54
2023-08-23T14:58:48.543Z,33.62
2023-08-23T15:01:15.487Z,33.58
2023-08-23T15:03:42.580Z,33.28
2023-08-23T15:06:09.208Z,33.12
2023-08-23T15:08:36.535Z,32.77
2023-08-23T15:11:03.628Z,32.80
2023-08-23T15:13:31.316Z,32.77
2023-08-23T15:15:59.402Z,32.63
2023-08-23T15:18:29.949Z,32.64
2023-08-23T15:20:56.917Z,32.32
2023-08-23T15:23:23.941Z,32.55
2023-08-23T15:25:50.607Z,32.12
2023-08-23T15:28:17.186Z,32.09
2023-08-23T15:30:44.049Z,32.06
2023-08-23T15:33:10.764Z,31.75
2023-08-23T15:35:37.628Z,31.54
2023-08-23T15:38:04.480Z,31.74
2023-08-23T15:40:31.342Z,31.30
2023-08-23T15:42:58.173Z,31.33
2023-08-23T15:45:24.894Z,31.12
2023-08-23T15:47:53.933Z,31.19
2023-08-23T15:50:24.619Z,31.20
2023-08-23T15:52:51.337Z,31.04
2023-08-23T15:55:18.128Z,30.83
2023-08-23T15:57:45.242Z,30.67
2023-08-23T16:00:13.218Z,30.48
2023-08-23T16:02:40.186Z,30.39
2023-08-23T16:05:07.108Z,30.31
2023-08-23T16:07:33.927Z,30.14
2023-08-23T16:10:00.655Z,30.21
2023-08-23T16:12:27.276Z,30.14
2023-08-23T16:14:54.167Z,30.14
2023-08-23T16:17:21.093Z,30.09
2023-08-23T16:19:47.722Z,29.86
2023-08-23T16:22:14.338Z,29.53
2023-08-23T16:24:42.980Z,29.12
2023-08-23T16:27:09.551Z,29.07
2023-08-23T16:29:36.146Z,29.15
2023-08-23T16:32:02.858Z,28.90
2023-08-23T16:34:30.008Z,28.63
2023-08-23T16:36:56.773Z,28.37
2023-08-23T16:39:24.277Z,28.49
2023-08-23T16:41:53.403Z,28.45
2023-08-23T16:44:20.426Z,28.45
2023-08-23T16:46:51.633Z,28.36
2023-08-23T16:49:18.826Z,28.20
2023-08-23T16:51:45.464Z,28.02
2023-08-23T16:54:13.090Z,28.01
2023-08-23T16:56:39.724Z,27.87
2023-08-23T16:59:06.323Z,27.76
2023-08-23T17:01:33.398Z,27.67
2023-08-23T17:04:00.095Z,27.57
2023-08-23T17:06:27.625Z,27.41
2023-08-23T17:08:54.348Z,27.24
2023-08-23T17:11:21.270Z,27.19
2023-08-23T17:13:47.829Z,27.12
2023-08-23T17:16:14.609Z,26.99
2023-08-23T17:18:41.263Z,26.82
2023-08-23T17:21:08.230Z,26.59
2023-08-23T17:23:34.896Z,26.54
2023-08-23T17:26:01.872Z,26.28
2023-08-23T17:28:28.461Z,26.28
2023-08-23T17:30:55.098Z,26.27
2023-08-23T17:33:21.891Z,26.28
2023-08-23T17:35:48.703Z,26.23
2023-08-23T17:38:15.341Z,26.13
2023-08-23T17:40:41.974Z,26.00
2023-08-23T17:43:09.332Z,25.82
2023-08-23T17:45:39.355Z,25.85
2023-08-23T17:48:06.377Z,25.72
2023-08-23T17:50:33.036Z,25.62
2023-08-23T17:53:00.309Z,25.32
2023-08-23T17:55:26.985Z,25.25
2023-08-23T17:57:53.595Z,25.32
2023-08-23T18:00:21.312Z,25.19
2023-08-23T18:02:48.435Z,25.11
2023-08-23T18:05:15.495Z,25.12
2023-08-23T18:07:42.253Z,24.92
2023-08-23T18:10:09.750Z,24.46
2023-08-23T18:12:36.989Z,24.32
2023-08-23T18:15:04.394Z,24.23
2023-08-23T18:17:31.154Z,24.08
2023-08-23T18:19:58.898Z,24.05
2023-08-23T18:22:25.625Z,24.11
2023-08-23T18:24:52.279Z,24.12
2023-08-23T18:27:18.913Z,23.74
2023-08-23T18:29:45.588Z,23.79
2023-08-23T18:32:16.019Z,23.46
2023-08-23T18:34:42.658Z,23.06
2023-08-23T18:37:09.324Z,22.79
2023-08-23T18:39:36.759Z,22.76
2023-08-23T18:42:03.691Z,22.72
2023-08-23T18:44:32.076Z,22.57
2023-08-23T18:46:58.929Z,22.67
2023-08-23T18:49:25.521Z,22.48
2023-08-23T18:51:52.140Z,22.30
2023-08-23T18:54:18.750Z,22.20
2023-08-23T18:56:45.319Z,22.24
2023-08-23T18:59:13.162Z,22.22
2023-08-23T19:01:40.010Z,22.22
2023-08-23T19:04:06.715Z,22.21
2023-08-23T19:06:33.333Z,22.09
2023-08-23T19:09:00.283Z,21.93
2023-08-23T19:11:26.856Z,22.01
2023-08-23T19:13:53.458Z,22.01
2023-08-23T19:16:20.247Z,22.06
2023-08-23T19:18:47.061Z,21.99
2023-08-23T19:21:13.808Z,21.92
2023-08-23T19:23:40.475Z,21.88
2023-08-23T19:26:09.196Z,21.76
2023-08-23T19:28:35.853Z,21.73
2023-08-23T19:31:02.451Z,21.65
2023-08-23T19:33:29.422Z,21.63
2023-08-23T19:35:56.794Z,21.58
2023-08-23T19:38:23.553Z,21.45
2023-08-23T19:40:51.314Z,21.41
2023-08-23T19:43:18.042Z,21.34
2023-08-23T19:45:44.913Z,21.37
2023-08-23T19:48:30.976Z,21.27
2023-08-23T19:50:58.446Z,21.30
2023-08-23T19:53:25.079Z,21.30
2023-08-23T19:55:51.673Z,21.15
2023-08-23T19:58:19.924Z,21.12
2023-08-23T20:00:46.860Z,21.24
2023-08-23T20:03:13.647Z,21.11
2023-08-23T20:05:45.210Z,21.11
2023-08-23T20:08:12.624Z,21.14
2023-08-23T20:10:39.262Z,21.05
2023-08-23T20:13:06.249Z,21.08
2023-08-23T20:15:32.805Z,21.04
2023-08-23T20:17:59.474Z,21.00
2023-08-23T20:20:26.164Z,21.05
2023-08-23T20:22:52.829Z,20.93
2023-08-23T20:25:19.951Z,20.95
2023-08-23T20:27:46.594Z,20.81
2023-08-23T20:30:13.403Z,20.74
2023-08-23T20:32:40.082Z,20.91
2023-08-23T20:35:07.906Z,20.80
2023-08-23T20:37:34.941Z,20.77
2023-08-23T20:40:01.559Z,20.83
2023-08-23T20:42:28.197Z,20.80
2023-08-23T20:44:54.800Z,20.70
2023-08-23T20:47:21.384Z,20.77
2023-08-23T20:49:48.118Z,20.72
2023-08-23T20:52:14.728Z,20.72
2023-08-23T20:54:41.434Z,20.64
2023-08-23T20:57:08.117Z,20.73
2023-08-23T20:59:34.754Z,20.62
2023-08-23T21:02:01.403Z,20.56
2023-08-23T21:04:28.989Z,20.49
2023-08-23T21:06:55.601Z,20.56
2023-08-23T21:09:22.173Z,20.57
2023-08-23T21:11:48.769Z,20.59
2023-08-23T21:14:15.472Z,20.62
2023-08-23T21:16:42.119Z,20.57
2023-08-23T21:19:08.784Z,20.67
2023-08-23T21:21:35.405Z,20.69
2023-08-23T21:24:02.053Z,20.69
2023-08-23T21:26:30.301Z,20.67
2023-08-23T21:28:58.329Z,20.64
2023-08-23T21:31:24.995Z,20.60
2023-08-23T21:33:51.803Z,20.59
2023-08-23T21:36:19.089Z,20.63
2023-08-23T21:38:46.232Z,20.64
2023-08-23T21:41:13.380Z,20.60
2023-08-23T21:43:40.122Z,20.63
2023-08-23T21:46:06.917Z,20.63
2023-08-23T21:48:33.924Z,20.53
2023-08-23T21:51:00.672Z,20.49
2023-08-23T21:53:27.264Z,20.49
2023-08-23T21:55:56.182Z,20.40
2023-08-23T21:58:24.752Z,20.29
